createdAt,value
2017-11-01T00:01:15.254Z,2.26
2017-11-01T00:03:43.009Z,2.23
2017-11-01T00:06:10.760Z,1.96
2017-11-01T00:08:42.530Z,2.16
2017-11-01T00:11:10.276Z,2.05
2017-11-01T00:13:37.986Z,2.01
2017-11-01T00:16:05.750Z,1.98
2017-11-01T00:18:34.689Z,1.89
2017-11-01T00:21:02.406Z,1.96
2017-11-01T00:23:30.162Z,1.75
2017-11-01T00:25:57.891Z,1.84
2017-11-01T00:28:25.608Z,1.79
2017-11-01T00:30:53.356Z,1.64
2017-11-01T00:33:21.223Z,1.80
2017-11-01T00:35:48.941Z,1.77
2017-11-01T00:38:16.750Z,1.73
2017-11-01T00:40:44.459Z,1.74
2017-11-01T00:43:12.191Z,1.81
2017-11-01T00:45:40.254Z,1.64
2017-11-01T00:48:07.952Z,1.64
2017-11-01T00:50:35.678Z,1.64
2017-11-01T00:53:03.388Z,1.63
2017-11-01T00:55:31.130Z,1.47
2017-11-01T00:57:58.842Z,1.51
2017-11-01T01:00:26.678Z,1.51
2017-11-01T01:02:54.400Z,1.53
2017-11-01T01:05:22.129Z,1.53
2017-11-01T01:07:49.841Z,1.53
2017-11-01T01:10:17.757Z,1.37
2017-11-01T01:12:45.484Z,1.48
2017-11-01T01:15:13.202Z,1.70
2017-11-01T01:17:40.970Z,1.78
2017-11-01T01:20:08.680Z,1.74
2017-11-01T01:22:36.512Z,1.67
2017-11-01T01:25:04.234Z,1.59
2017-11-01T01:27:31.931Z,1.29
2017-11-01T01:29:59.680Z,1.32
2017-11-01T01:32:27.369Z,1.50
2017-11-01T01:34:55.083Z,1.45
2017-11-01T01:37:22.843Z,1.50
2017-11-01T01:39:50.580Z,1.63
2017-11-01T01:42:18.332Z,1.59
2017-11-01T01:44:46.036Z,1.64
2017-11-01T01:47:13.759Z,1.59
2017-11-01T01:49:41.447Z,1.61
2017-11-01T01:52:09.172Z,1.57
2017-11-01T01:54:37.376Z,1.66
2017-11-01T01:57:05.155Z,1.73
2017-11-01T01:59:32.853Z,1.64
2017-11-01T02:02:00.679Z,1.65
2017-11-01T02:04:29.174Z,1.59
2017-11-01T02:06:56.914Z,1.52
2017-11-01T02:09:24.612Z,1.48
2017-11-01T02:11:52.359Z,1.53
2017-11-01T02:14:20.115Z,1.56
2017-11-01T02:16:47.848Z,1.62
2017-11-01T02:19:15.616Z,1.46
2017-11-01T02:21:43.420Z,1.39
2017-11-01T02:24:11.218Z,1.45
2017-11-01T02:26:38.990Z,1.49
2017-11-01T02:29:06.881Z,1.50
2017-11-01T02:31:34.694Z,1.57
2017-11-01T02:34:02.476Z,1.62
2017-11-01T02:36:30.240Z,1.56
2017-11-01T02:38:58.032Z,1.60
2017-11-01T02:41:25.832Z,1.58
2017-11-01T02:43:53.594Z,1.64
2017-11-01T02:46:21.409Z,1.62
2017-11-01T02:48:49.136Z,1.64
2017-11-01T02:51:17.066Z,1.67
2017-11-01T02:53:44.864Z,1.73
2017-11-01T02:56:12.599Z,1.74
2017-11-01T02:58:40.385Z,1.87
2017-11-01T03:01:08.180Z,1.91
2017-11-01T03:03:35.911Z,1.89
2017-11-01T03:06:03.700Z,1.83
2017-11-01T03:08:31.436Z,1.71
2017-11-01T03:10:59.154Z,1.94
2017-11-01T03:13:26.933Z,1.97
2017-11-01T03:15:54.752Z,1.94
2017-11-01T03:18:22.541Z,1.91
2017-11-01T03:20:50.346Z,1.95
2017-11-01T03:23:18.115Z,2.00
2017-11-01T03:25:45.925Z,2.00
2017-11-01T03:28:13.791Z,1.90
2017-11-01T03:30:41.563Z,1.96
2017-11-01T03:33:09.345Z,2.06
2017-11-01T03:35:37.146Z,2.06
2017-11-01T03:38:04.959Z,2.06
2017-11-01T03:40:32.740Z,2.11
2017-11-01T03:43:01.649Z,2.19
2017-11-01T03:45:29.414Z,2.15
2017-11-01T03:47:57.206Z,2.16
2017-11-01T03:50:24.992Z,2.14
2017-11-01T03:52:52.732Z,2.13
2017-11-01T03:55:20.551Z,2.07
2017-11-01T03:57:48.271Z,2.08
2017-11-01T04:00:16.092Z,2.09
2017-11-01T04:02:43.848Z,2.16
2017-11-01T04:05:11.673Z,2.11
2017-11-01T04:07:39.440Z,2.06
2017-11-01T04:10:07.202Z,2.14
2017-11-01T04:12:34.977Z,2.15
2017-11-01T04:15:02.734Z,2.12
2017-11-01T04:17:31.184Z,2.17
2017-11-01T04:20:00.011Z,2.13
2017-11-01T04:22:28.381Z,2.14
2017-11-01T04:24:56.190Z,2.17
2017-11-01T04:27:23.907Z,2.19
2017-11-01T04:29:51.736Z,2.11
2017-11-01T04:32:19.489Z,2.20
2017-11-01T04:34:47.260Z,2.22
2017-11-01T04:37:14.976Z,2.16
2017-11-01T04:39:42.788Z,2.14
2017-11-01T04:42:10.503Z,2.13
2017-11-01T04:44:38.956Z,2.13
2017-11-01T04:47:06.736Z,2.07
2017-11-01T04:49:37.246Z,2.15
2017-11-01T04:52:11.598Z,2.14
2017-11-01T04:54:39.321Z,2.08
2017-11-01T04:57:07.117Z,2.16
2017-11-01T04:59:34.867Z,2.16
2017-11-01T05:02:02.630Z,2.23
2017-11-01T05:04:30.496Z,2.26
2017-11-01T05:06:58.269Z,2.32
2017-11-01T05:09:26.871Z,2.23
2017-11-01T05:11:54.890Z,2.21
2017-11-01T05:14:22.988Z,2.23
2017-11-01T05:16:52.631Z,2.28
2017-11-01T05:19:20.463Z,2.15
2017-11-01T05:21:49.042Z,2.21
2017-11-01T05:24:16.888Z,2.28
2017-11-01T05:26:44.686Z,2.32
2017-11-01T05:29:12.479Z,2.34
2017-11-01T05:31:40.300Z,2.33
2017-11-01T05:34:08.027Z,2.38
2017-11-01T05:36:35.744Z,2.41
2017-11-01T05:39:03.793Z,2.43
2017-11-01T05:41:31.574Z,2.43
2017-11-01T05:43:59.311Z,2.48
2017-11-01T05:46:27.968Z,2.52
2017-11-01T05:48:55.676Z,2.50
2017-11-01T05:51:23.427Z,2.48
2017-11-01T05:53:51.200Z,2.45
2017-11-01T05:56:22.106Z,2.50
2017-11-01T05:58:49.881Z,2.51
2017-11-01T06:01:17.652Z,2.46
2017-11-01T06:03:45.571Z,2.46
2017-11-01T06:06:13.347Z,2.48
2017-11-01T06:08:41.161Z,2.55
2017-11-01T06:11:08.979Z,2.59
2017-11-01T06:13:36.713Z,2.45
2017-11-01T06:16:04.488Z,2.54
2017-11-01T06:18:32.362Z,2.66
2017-11-01T06:21:00.181Z,2.75
2017-11-01T06:23:27.985Z,3.06
2017-11-01T06:25:55.791Z,4.32
2017-11-01T06:28:23.610Z,4.87
2017-11-01T06:30:52.576Z,4.76
2017-11-01T06:33:20.303Z,6.46
2017-11-01T06:35:48.122Z,8.32
2017-11-01T06:38:15.853Z,7.37
2017-11-01T06:40:43.563Z,5.93
2017-11-01T06:43:11.361Z,4.78
2017-11-01T06:45:39.146Z,4.23
2017-11-01T06:48:06.958Z,3.99
2017-11-01T06:50:34.727Z,3.77
2017-11-01T06:53:02.515Z,3.64
2017-11-01T06:55:30.207Z,3.67
2017-11-01T06:57:58.100Z,3.40
2017-11-01T07:00:39.079Z,3.10
2017-11-01T07:03:06.934Z,3.09
2017-11-01T07:05:34.650Z,3.26
2017-11-01T07:08:02.428Z,3.24
2017-11-01T07:10:30.328Z,3.15
2017-11-01T07:12:58.152Z,3.09
2017-11-01T07:15:25.894Z,3.26
2017-11-01T07:17:53.599Z,3.38
2017-11-01T07:20:21.426Z,3.28
2017-11-01T07:22:49.195Z,3.26
2017-11-01T07:25:18.172Z,3.36
2017-11-01T07:27:46.012Z,3.47
2017-11-01T07:30:14.631Z,3.58
2017-11-01T07:32:42.377Z,3.69
2017-11-01T07:35:10.259Z,3.73
2017-11-01T07:37:38.019Z,3.78
2017-11-01T07:40:05.811Z,3.66
2017-11-01T07:42:33.793Z,3.45
2017-11-01T07:45:01.856Z,3.51
2017-11-01T07:47:29.602Z,3.58
2017-11-01T07:49:57.279Z,3.57
2017-11-01T07:52:25.010Z,3.72
2017-11-01T07:54:52.767Z,3.87
2017-11-01T07:57:20.864Z,3.96
2017-11-01T07:59:48.934Z,4.04
2017-11-01T08:02:16.639Z,4.02
2017-11-01T08:04:44.444Z,4.07
2017-11-01T08:07:12.202Z,4.10
2017-11-01T08:09:39.881Z,4.13
2017-11-01T08:12:07.613Z,4.17
2017-11-01T08:14:35.516Z,4.30
2017-11-01T08:17:03.544Z,4.28
2017-11-01T08:19:31.204Z,4.13
2017-11-01T08:21:59.527Z,4.09
2017-11-01T08:24:27.323Z,4.19
2017-11-01T08:26:55.015Z,4.39
2017-11-01T08:29:22.779Z,4.35
2017-11-01T08:31:50.796Z,4.32
2017-11-01T08:34:18.846Z,4.25
2017-11-01T08:36:46.592Z,4.43
2017-11-01T08:39:14.355Z,4.30
2017-11-01T08:41:42.561Z,4.29
2017-11-01T08:44:10.283Z,4.32
2017-11-01T08:46:38.035Z,4.49
2017-11-01T08:49:05.768Z,4.86
2017-11-01T08:51:33.575Z,4.82
2017-11-01T08:54:01.326Z,4.66
2017-11-01T08:56:29.222Z,5.01
2017-11-01T08:58:56.938Z,5.03
2017-11-01T09:01:24.697Z,5.38
2017-11-01T09:03:52.467Z,5.21
2017-11-01T09:06:20.290Z,5.19
2017-11-01T09:08:48.043Z,5.13
2017-11-01T09:11:15.820Z,5.57
2017-11-01T09:13:43.657Z,5.95
2017-11-01T09:16:11.442Z,6.83
2017-11-01T09:18:39.250Z,7.26
2017-11-01T09:21:07.071Z,6.18
2017-11-01T09:23:34.856Z,6.30
2017-11-01T09:26:02.916Z,5.97
2017-11-01T09:28:30.687Z,5.77
2017-11-01T09:30:59.394Z,5.96
2017-11-01T09:33:27.134Z,6.32
2017-11-01T09:35:55.061Z,6.62
2017-11-01T09:38:22.796Z,6.22
2017-11-01T09:40:50.575Z,5.97
2017-11-01T09:43:18.340Z,6.17
2017-11-01T09:45:46.187Z,6.02
2017-11-01T09:48:14.304Z,5.93
2017-11-01T09:50:42.173Z,5.62
2017-11-01T09:53:09.963Z,6.02
2017-11-01T09:55:37.692Z,6.22
2017-11-01T09:58:05.408Z,6.04
2017-11-01T10:00:33.176Z,6.04
2017-11-01T10:03:00.937Z,6.07
2017-11-01T10:05:28.657Z,6.29
2017-11-01T10:07:57.550Z,6.18
2017-11-01T10:10:25.262Z,6.29
2017-11-01T10:12:53.073Z,6.40
2017-11-01T10:15:20.832Z,6.23
2017-11-01T10:17:48.630Z,6.04
2017-11-01T10:20:17.311Z,6.16
2017-11-01T10:22:45.038Z,6.33
2017-11-01T10:25:12.882Z,6.26
2017-11-01T10:27:44.242Z,6.31
2017-11-01T10:30:12.060Z,6.40
2017-11-01T10:32:40.134Z,6.32
2017-11-01T10:35:08.001Z,6.47
2017-11-01T10:37:37.757Z,6.53
2017-11-01T10:40:06.450Z,6.48
2017-11-01T10:42:34.273Z,6.50
2017-11-01T10:45:02.088Z,6.46
2017-11-01T10:47:29.936Z,6.68
2017-11-01T10:49:58.922Z,6.62
2017-11-01T10:52:26.649Z,6.67
2017-11-01T10:54:55.687Z,6.72
2017-11-01T10:57:23.694Z,7.01
2017-11-01T10:59:51.589Z,6.89
2017-11-01T11:02:20.650Z,6.74
2017-11-01T11:04:48.557Z,6.88
2017-11-01T11:07:16.673Z,6.91
2017-11-01T11:09:44.536Z,6.99
2017-11-01T11:12:12.781Z,7.10
2017-11-01T11:14:40.816Z,6.98
2017-11-01T11:17:08.726Z,6.93
2017-11-01T11:19:36.579Z,6.81
2017-11-01T11:22:04.488Z,7.06
2017-11-01T11:24:32.295Z,6.99
2017-11-01T11:27:00.038Z,7.03
2017-11-01T11:29:29.417Z,7.21
2017-11-01T11:31:57.207Z,7.29
2017-11-01T11:34:25.029Z,7.22
2017-11-01T11:36:52.827Z,7.30
2017-11-01T11:39:20.579Z,7.39
2017-11-01T11:41:48.458Z,7.39
2017-11-01T11:44:16.290Z,7.52
2017-11-01T11:46:44.098Z,7.41
2017-11-01T11:49:12.746Z,7.36
2017-11-01T11:51:40.580Z,7.45
2017-11-01T11:54:08.507Z,7.45
2017-11-01T11:56:36.715Z,7.43
2017-11-01T11:59:04.960Z,7.57
2017-11-01T12:01:32.746Z,7.62
2017-11-01T12:04:00.515Z,7.64
2017-11-01T12:06:28.393Z,7.69
2017-11-01T12:08:56.272Z,7.75
2017-11-01T12:11:24.129Z,7.75
2017-11-01T12:13:52.757Z,7.83
2017-11-01T12:16:20.679Z,7.91
2017-11-01T12:18:48.516Z,7.93
2017-11-01T12:21:16.594Z,7.97
2017-11-01T12:23:45.013Z,8.05
2017-11-01T12:26:12.883Z,8.08
2017-11-01T12:28:40.591Z,8.18
2017-11-01T12:31:08.366Z,8.30
2017-11-01T12:33:36.146Z,8.37
2017-11-01T12:36:03.968Z,8.44
2017-11-01T12:38:31.741Z,8.50
2017-11-01T12:40:59.621Z,8.72
2017-11-01T12:43:27.447Z,8.43
2017-11-01T12:45:55.187Z,8.27
2017-11-01T12:48:22.990Z,8.31
2017-11-01T12:50:50.795Z,8.37
2017-11-01T12:53:18.556Z,8.14
2017-11-01T12:55:46.381Z,8.23
2017-11-01T12:58:15.129Z,8.17
2017-11-01T13:00:42.909Z,8.26
2017-11-01T13:03:10.650Z,8.26
2017-11-01T13:05:39.013Z,8.26
2017-11-01T13:08:06.706Z,8.35
2017-11-01T13:10:34.394Z,8.36
2017-11-01T13:13:02.140Z,8.52
2017-11-01T13:15:29.876Z,8.41
2017-11-01T13:17:57.833Z,8.53
2017-11-01T13:20:25.587Z,8.58
2017-11-01T13:22:53.378Z,8.53
2017-11-01T13:25:21.108Z,8.58
2017-11-01T13:27:48.880Z,8.55
2017-11-01T13:30:16.635Z,8.55
2017-11-01T13:32:44.566Z,8.58
2017-11-01T13:35:12.271Z,8.57
2017-11-01T13:37:40.943Z,8.54
2017-11-01T13:40:08.735Z,8.57
2017-11-01T13:42:36.605Z,8.56
2017-11-01T13:45:04.418Z,8.59
2017-11-01T13:47:32.224Z,8.62
2017-11-01T13:50:00.009Z,8.56
2017-11-01T13:52:27.768Z,8.55
2017-11-01T13:54:55.457Z,8.53
2017-11-01T13:57:23.388Z,8.47
2017-11-01T13:59:51.091Z,8.53
2017-11-01T14:02:18.830Z,8.57
2017-11-01T14:04:46.573Z,8.63
2017-11-01T14:07:14.281Z,8.52
2017-11-01T14:09:42.103Z,8.49
2017-11-01T14:12:09.934Z,8.42
2017-11-01T14:14:37.750Z,8.40
2017-11-01T14:17:05.478Z,8.37
2017-11-01T14:19:33.190Z,8.41
2017-11-01T14:22:01.940Z,8.36
2017-11-01T14:24:29.703Z,8.36
2017-11-01T14:26:57.787Z,8.39
2017-11-01T14:29:25.599Z,8.37
2017-11-01T14:31:53.359Z,8.25
2017-11-01T14:34:21.107Z,8.30
2017-11-01T14:36:48.835Z,8.31
2017-11-01T14:39:16.642Z,8.29
2017-11-01T14:41:44.379Z,8.26
2017-11-01T14:44:12.153Z,8.36
2017-11-01T14:46:39.853Z,8.36
2017-11-01T14:49:07.619Z,8.28
2017-11-01T14:51:35.352Z,8.24
2017-11-01T14:54:03.130Z,8.22
2017-11-01T14:56:30.823Z,8.22
2017-11-01T14:58:58.626Z,8.30
2017-11-01T15:01:26.493Z,8.31
2017-11-01T15:03:54.572Z,8.48
2017-11-01T15:06:22.292Z,8.40
2017-11-01T15:08:50.082Z,8.29
2017-11-01T15:11:17.879Z,8.17
2017-11-01T15:13:45.600Z,8.10
2017-11-01T15:16:13.313Z,8.13
2017-11-01T15:18:41.704Z,8.13
2017-11-01T15:21:09.412Z,8.12
2017-11-01T15:23:37.399Z,8.09
2017-11-01T15:26:05.150Z,8.07
2017-11-01T15:28:32.886Z,8.02
2017-11-01T15:31:00.661Z,8.03
2017-11-01T15:33:29.572Z,8.03
2017-11-01T15:35:57.603Z,8.04
2017-11-01T15:38:25.322Z,7.96
2017-11-01T15:40:53.230Z,7.97
2017-11-01T15:43:21.009Z,7.95
2017-11-01T15:45:48.706Z,7.91
2017-11-01T15:48:16.460Z,7.90
2017-11-01T15:50:44.287Z,7.91
2017-11-01T15:53:12.017Z,7.93
2017-11-01T15:55:39.775Z,7.91
2017-11-01T15:58:07.570Z,7.87
2017-11-01T16:00:35.272Z,7.86
2017-11-01T16:03:03.042Z,7.78
2017-11-01T16:05:30.772Z,7.80
2017-11-01T16:07:58.600Z,7.92
2017-11-01T16:10:26.338Z,7.75
2017-11-01T16:12:54.074Z,7.65
2017-11-01T16:15:21.845Z,7.64
2017-11-01T16:17:49.573Z,7.63
2017-11-01T16:20:17.374Z,7.66
2017-11-01T16:22:45.129Z,7.72
2017-11-01T16:25:12.914Z,7.69
2017-11-01T16:27:41.169Z,7.71
2017-11-01T16:30:09.001Z,7.72
2017-11-01T16:32:36.717Z,7.73
2017-11-01T16:35:04.484Z,7.76
2017-11-01T16:37:32.248Z,7.76
2017-11-01T16:39:59.965Z,7.71
2017-11-01T16:42:27.746Z,7.64
2017-11-01T16:44:55.544Z,7.65
2017-11-01T16:47:23.324Z,7.60
2017-11-01T16:49:51.095Z,7.49
2017-11-01T16:52:19.014Z,7.57
2017-11-01T16:54:46.718Z,7.56
2017-11-01T16:57:14.499Z,7.52
2017-11-01T16:59:42.207Z,7.56
2017-11-01T17:02:10.031Z,7.64
2017-11-01T17:04:38.668Z,7.63
2017-11-01T17:07:06.497Z,7.62
2017-11-01T17:09:34.257Z,7.62
2017-11-01T17:12:02.004Z,7.60
2017-11-01T17:14:29.781Z,7.61
2017-11-01T17:16:57.486Z,7.60
2017-11-01T17:19:25.194Z,7.62
2017-11-01T17:21:52.976Z,7.61
2017-11-01T17:24:20.704Z,7.60
2017-11-01T17:26:48.505Z,7.55
2017-11-01T17:29:16.370Z,7.52
2017-11-01T17:31:44.935Z,7.50
2017-11-01T17:34:13.378Z,7.48
2017-11-01T17:36:41.229Z,7.50
2017-11-01T17:39:09.010Z,7.52
2017-11-01T17:41:36.768Z,7.53
2017-11-01T17:44:04.553Z,7.57
2017-11-01T17:46:32.320Z,7.56
2017-11-01T17:49:00.209Z,7.56
2017-11-01T17:51:28.093Z,7.52
2017-11-01T17:53:55.963Z,7.47
2017-11-01T17:56:24.917Z,7.42
2017-11-01T17:58:55.001Z,7.47
2017-11-01T18:01:22.948Z,7.41
2017-11-01T18:03:50.894Z,7.32
2017-11-01T18:06:18.725Z,7.32
2017-11-01T18:08:46.457Z,7.37
2017-11-01T18:11:14.350Z,7.43
2017-11-01T18:13:42.144Z,7.46
2017-11-01T18:16:10.138Z,7.42
2017-11-01T18:18:37.945Z,7.43
2017-11-01T18:21:05.882Z,7.36
2017-11-01T18:23:33.709Z,7.44
2017-11-01T18:26:02.053Z,7.45
2017-11-01T18:28:31.020Z,7.43
2017-11-01T18:31:01.441Z,7.41
2017-11-01T18:33:29.288Z,7.37
2017-11-01T18:35:57.372Z,7.35
2017-11-01T18:38:26.589Z,7.37
2017-11-01T18:40:54.375Z,7.40
2017-11-01T18:43:22.409Z,7.39
2017-11-01T18:45:50.288Z,7.38
2017-11-01T18:48:18.358Z,7.40
2017-11-01T18:50:47.094Z,7.42
2017-11-01T18:53:15.016Z,7.36
2017-11-01T18:55:42.914Z,7.38
2017-11-01T18:58:10.646Z,7.33
2017-11-01T19:00:39.653Z,7.36
2017-11-01T19:03:07.544Z,7.33
2017-11-01T19:05:35.533Z,7.26
2017-11-01T19:08:06.802Z,7.20
2017-11-01T19:10:35.081Z,7.16
2017-11-01T19:13:04.010Z,7.16
2017-11-01T19:15:31.872Z,7.13
2017-11-01T19:18:02.775Z,7.15
2017-11-01T19:20:35.319Z,7.12
2017-11-01T19:23:03.199Z,7.04
2017-11-01T19:25:30.934Z,7.01
2017-11-01T19:27:59.988Z,6.98
2017-11-01T19:30:28.966Z,6.90
2017-11-01T19:32:57.415Z,6.98
2017-11-01T19:35:27.232Z,6.99
2017-11-01T19:37:55.085Z,7.01
2017-11-01T19:40:22.913Z,7.00
2017-11-01T19:42:51.209Z,6.99
2017-11-01T19:45:19.087Z,7.01
2017-11-01T19:47:47.189Z,7.06
2017-11-01T19:50:15.364Z,6.93
2017-11-01T19:52:43.443Z,6.97
2017-11-01T19:55:11.325Z,6.99
2017-11-01T19:57:39.162Z,6.95
2017-11-01T20:00:08.194Z,6.93
2017-11-01T20:02:36.395Z,6.90
2017-11-01T20:05:05.285Z,6.94
2017-11-01T20:07:34.948Z,6.97
2017-11-01T20:10:05.527Z,6.97
2017-11-01T20:12:35.589Z,6.96
2017-11-01T20:15:03.646Z,6.96
2017-11-01T20:17:32.612Z,6.91
2017-11-01T20:20:01.092Z,6.83
2017-11-01T20:22:28.901Z,6.73
2017-11-01T20:24:57.370Z,6.65
2017-11-01T20:27:25.198Z,6.62
2017-11-01T20:29:53.786Z,6.69
2017-11-01T20:32:21.687Z,6.78
2017-11-01T20:34:49.484Z,6.85
2017-11-01T20:37:17.408Z,6.93
2017-11-01T20:39:47.337Z,6.83
2017-11-01T20:42:15.816Z,6.79
2017-11-01T20:44:43.870Z,6.72
2017-11-01T20:47:11.887Z,6.66
2017-11-01T20:49:39.730Z,6.60
2017-11-01T20:52:09.607Z,6.42
2017-11-01T20:54:39.892Z,6.40
2017-11-01T20:57:07.819Z,6.33
2017-11-01T20:59:35.793Z,6.31
2017-11-01T21:02:03.732Z,6.17
2017-11-01T21:04:31.564Z,6.20
2017-11-01T21:07:00.778Z,6.31
2017-11-01T21:09:28.757Z,6.26
2017-11-01T21:11:56.512Z,6.11
2017-11-01T21:14:24.442Z,6.08
2017-11-01T21:16:52.229Z,5.98
2017-11-01T21:19:20.085Z,5.93
2017-11-01T21:21:48.061Z,5.97
2017-11-01T21:24:16.074Z,5.92
2017-11-01T21:26:43.889Z,5.81
2017-11-01T21:29:11.665Z,5.81
2017-11-01T21:31:39.456Z,5.83
2017-11-01T21:34:07.397Z,5.77
2017-11-01T21:36:35.645Z,5.78
2017-11-01T21:39:03.599Z,5.81
2017-11-01T21:41:31.382Z,5.81
2017-11-01T21:43:59.095Z,5.76
2017-11-01T21:46:26.956Z,5.89
2017-11-01T21:48:54.839Z,5.90
2017-11-01T21:51:22.635Z,5.93
2017-11-01T21:53:50.412Z,5.88
2017-11-01T21:56:18.144Z,5.98
2017-11-01T21:58:46.156Z,6.02
2017-11-01T22:01:14.904Z,6.04
2017-11-01T22:03:42.624Z,6.00
2017-11-01T22:06:10.311Z,5.98
2017-11-01T22:08:38.083Z,5.97
2017-11-01T22:11:05.805Z,5.96
2017-11-01T22:13:33.544Z,6.00
2017-11-01T22:16:01.299Z,5.97
2017-11-01T22:18:29.013Z,6.01
2017-11-01T22:20:56.724Z,6.13
2017-11-01T22:23:24.437Z,6.20
2017-11-01T22:25:52.192Z,6.27
2017-11-01T22:28:20.398Z,6.24
2017-11-01T22:30:48.216Z,6.25
2017-11-01T22:33:15.975Z,6.28
2017-11-01T22:35:43.665Z,6.23
2017-11-01T22:38:11.525Z,6.23
2017-11-01T22:40:40.430Z,6.20
2017-11-01T22:43:08.307Z,6.18
2017-11-01T22:45:36.124Z,6.11
2017-11-01T22:48:03.853Z,6.08
2017-11-01T22:50:31.642Z,6.09
2017-11-01T22:52:59.511Z,6.03
2017-11-01T22:55:27.193Z,5.94
2017-11-01T22:57:54.880Z,5.89
2017-11-01T23:00:22.635Z,5.82
2017-11-01T23:02:50.340Z,5.90
2017-11-01T23:05:18.044Z,5.96
2017-11-01T23:07:45.758Z,6.01
2017-11-01T23:10:13.544Z,6.05
2017-11-01T23:12:41.225Z,6.08
2017-11-01T23:15:08.998Z,6.09
2017-11-01T23:17:36.719Z,6.11
2017-11-01T23:20:04.437Z,6.11
2017-11-01T23:22:32.185Z,6.12
2017-11-01T23:24:59.887Z,6.13
2017-11-01T23:27:27.548Z,6.17
2017-11-01T23:29:55.254Z,6.15
2017-11-01T23:32:22.918Z,6.18
2017-11-01T23:34:50.659Z,6.17
2017-11-01T23:37:18.344Z,6.20
2017-11-01T23:39:46.108Z,6.21
2017-11-01T23:42:14.506Z,6.21
2017-11-01T23:44:43.421Z,6.23
2017-11-01T23:47:11.172Z,6.23
2017-11-01T23:49:38.862Z,6.24
2017-11-01T23:52:06.551Z,6.22
2017-11-01T23:54:34.272Z,6.20
2017-11-01T23:57:02.856Z,6.23
2017-11-01T23:59:30.613Z,6.27
